Monrovia, MD (21770)

12:40 PM EST on January 27, 2015 (GMT -0500)
Green Valley | Change Station
CLOSE
Current Station
Personal Weather Station
Location: Monrovia, MD
Elevation: 673 ft
Nearby Weather Stations

Elev 673 ft 39.34 °N, 77.25 °W | Updated 11 seconds ago

Overcast
Overcast
32.3 °F
Feels Like 32 °F
N
0.0
Wind Variable Wind from North
Gusts 0.0 mph

Today
High -- | Low -- °F
--% Chance of Precip.
Yesterday
High -- | Low -- °F
Precip. -- in
7:20 AM 5:23 PM
First Quarter, 56% visible
Pressure 29.85 in
Visibility 10.0 miles
Clouds Scattered Clouds 4900 ft
Mostly Cloudy 6000 ft
Overcast 8500 ft
Windchill 32 °F
Dew Point 30 °F
Humidity 91%
Rainfall 0.04 in
Snow Depth Not available.
UV 1 out of 12
Pollen .10 out of 12
Air Quality Not available.
Flu Activity Not available.
METAR KFDK 271649Z 31007KT 10SM SCT049 BKN060 OVC085 01/M06 A2985

More Conditions Fewer Conditions

Pressure 29.85 in
Visibility 10.0 miles
Clouds Scattered Clouds 4900 ft
Mostly Cloudy 6000 ft
Overcast 8500 ft
Windchill 32 °F
Dew Point 30 °F
Humidity 91%
Rainfall 0.04 in
Snow Depth Not available.
UV 1 out of 12
Pollen .10 out of 12
Air Quality Not available.
Flu Activity Not available.
METAR KFDK 271649Z 31007KT 10SM SCT049 BKN060 OVC085 01/M06 A2985

More Conditions Fewer Conditions

10-Day Weather Forecast

Almanac

Astronomy

Jan. 27, 2015 Rise Set
Actual Time
Civil Twilight
Nautical Twilight
Astronomical Twilight
Moon
Length of Visible Light
Length of Day
Tomorrow will be .
, % of the Moon is Illuminated

Today's Extremes

State Highs State Lows

Community

WunderPhotos

Upload Photos

1,790,741 photos uploaded!

WunderBlogs® & News

Nearby

Air Quality

  Air Quality AQ Index Pollutant
Not available.

Snow Depth

Station Depth Elevation

Earthquake Activity

City Distance Mag. Time & Date
Minimum magnitude displayed is 2.5.

Coastal Water Temperatures

Place Temperature

Nearby Weather Stations